Chemical Marketer — 9HA2018 — position and weather

sailwx.info

Track history (hours):
 
Tides and Currents Weather Stations Pressure Air Temp Water Temp Dewpoint Dewpoint Depression Visibility Wind Speed Wind Dir Waves Ship Positions

Chemical Marketer

Last reported at 2018-Jan-11 03:18 UTC. Time now 2018-Jan-19 05:56 UTC.
Position N 37°56' E 024°38'.
Warning: this ship's position is 8 days out of date.

Length 134 m; draft 9 m.

Type: Tanker. MMSI: 249814000.

Date/timePositionNaut miles runAvg speedWind from/ knotsBaromVisibWave heightAir tempDewpointWater temp
2018-Jan-11 03:18N 37°56' E 024°38'512.1
2018-Jan-11 02:53N 37°52' E 024°34'512.4
2018-Jan-11 02:30N 37°48' E 024°33'612.8
2018-Jan-11 02:01N 37°41' E 024°33'611.8
2018-Jan-11 01:31N 37°36' E 024°30'612.8
2018-Jan-11 01:00N 37°32' E 024°24'612.6
2018-Jan-11 00:30N 37°27' E 024°18'713.2
2018-Jan-11 00:01N 37°23' E 024°12'612.6
2018-Jan-10 23:31N 37°18' E 024°06'712.5
2018-Jan-10 22:58N 37°14' E 023°60'612.5
2018-Jan-10 22:27N 37°10' E 023°54'612.3
2018-Jan-10 22:00N 37°06' E 023°49'612.3
2018-Jan-10 21:30N 37°01' E 023°43'612.1
2018-Jan-10 20:59N 36°57' E 023°37'41611.0
2018-Jan-09 07:21N 36°21' E 015°01'411.9
2018-Jan-09 07:00N 36°21' E 014°56'612.2
2018-Jan-09 06:30N 36°21' E 014°48'612.5
2018-Jan-09 06:00N 36°22' E 014°40'612.2
2018-Jan-09 05:30N 36°22' E 014°33'612.2
2018-Jan-09 04:59N 36°22' E 014°25'612.4
2018-Jan-09 04:30N 36°23' E 014°18'612.3
2018-Jan-09 04:00N 36°24' E 014°10'912.6
2018-Jan-09 03:16N 36°26' E 013°59'312.5
2018-Jan-09 03:00N 36°27' E 013°55'712.2
2018-Jan-09 02:28N 36°30' E 013°48'63012.6
2018-Jan-07 00:30N 36°56' E 000°42'612.8
2018-Jan-07 00:00N 36°53' E 000°35'612.8
2018-Jan-06 23:30N 36°51' E 000°27'713.2
2018-Jan-06 23:00N 36°49' E 000°19'612.5
2018-Jan-06 22:30N 36°47' E 000°12'612.7
2018-Jan-06 22:00N 36°45' E 000°04'25814.0
2018-Jan-06 03:36N 36°02' W 005°11'112.6
2018-Jan-06 03:30N 36°03' W 005°12'612.2
2018-Jan-06 03:00N 36°04' W 005°20'6 0.2
2018-Jan-05 02:13N 36°09' W 005°24'1 2.8
2018-Jan-05 01:59N 36°09' W 005°24'5 8.4
2018-Jan-05 01:23N 36°04' W 005°20'7 5.4
2018-Jan-05 00:02N 36°03' W 005°11'0 3.0
2018-Jan-05 00:00N 36°03' W 005°12'1 2.8
2018-Jan-04 23:31N 36°03' W 005°13'1 2.9
2018-Jan-04 23:00N 36°03' W 005°15'2 3.1
2018-Jan-04 22:30N 36°03' W 005°17'4 8.3
2018-Jan-04 22:01N 35°60' W 005°20'5 9.7
2018-Jan-04 21:31N 35°58' W 005°26'26310.6
2018-Jan-03 20:42N 38°19' W 010°05'413.1
2018-Jan-03 20:21N 38°23' W 010°06'513.0
2018-Jan-03 20:00N 38°27' W 010°08'813.3
2018-Jan-03 19:23N 38°35' W 010°10'712.9
2018-Jan-03 18:52N 38°42' W 010°12'512.8
2018-Jan-03 18:30N 38°47' W 010°12'612.6
2018-Jan-03 18:00N 38°53' W 010°12'913.3
2018-Jan-03 17:18N 39°02' W 010°12'413.2
2018-Jan-03 16:59N 39°06' W 010°12'  
Track history (hours):
 
Tides and Currents Weather Stations Pressure Air Temp Water Temp Dewpoint Dewpoint Depression Visibility Wind Speed Wind Dir Waves Ship Positions

Chemical Marketer

Last reported at 2018-Jan-11 03:18 UTC. Time now 2018-Jan-19 05:56 UTC.
Position N 37°56' E 024°38'.
Warning: this ship's position is 8 days out of date.

Length 134 m; draft 9 m.

Type: Tanker. MMSI: 249814000.

Date/timePositionNaut miles runAvg speedWind from/ knotsBaromVisibWave heightAir tempDewpointWater temp
2018-Jan-11 03:18N 37°56' E 024°38'512.1
2018-Jan-11 02:53N 37°52' E 024°34'512.4
2018-Jan-11 02:30N 37°48' E 024°33'612.8
2018-Jan-11 02:01N 37°41' E 024°33'611.8
2018-Jan-11 01:31N 37°36' E 024°30'612.8
2018-Jan-11 01:00N 37°32' E 024°24'612.6
2018-Jan-11 00:30N 37°27' E 024°18'713.2
2018-Jan-11 00:01N 37°23' E 024°12'612.6
2018-Jan-10 23:31N 37°18' E 024°06'712.5
2018-Jan-10 22:58N 37°14' E 023°60'612.5
2018-Jan-10 22:27N 37°10' E 023°54'612.3
2018-Jan-10 22:00N 37°06' E 023°49'612.3
2018-Jan-10 21:30N 37°01' E 023°43'612.1
2018-Jan-10 20:59N 36°57' E 023°37'41611.0
2018-Jan-09 07:21N 36°21' E 015°01'411.9
2018-Jan-09 07:00N 36°21' E 014°56'612.2
2018-Jan-09 06:30N 36°21' E 014°48'612.5
2018-Jan-09 06:00N 36°22' E 014°40'612.2
2018-Jan-09 05:30N 36°22' E 014°33'612.2
2018-Jan-09 04:59N 36°22' E 014°25'612.4
2018-Jan-09 04:30N 36°23' E 014°18'612.3
2018-Jan-09 04:00N 36°24' E 014°10'912.6
2018-Jan-09 03:16N 36°26' E 013°59'312.5
2018-Jan-09 03:00N 36°27' E 013°55'712.2
2018-Jan-09 02:28N 36°30' E 013°48'63012.6
2018-Jan-07 00:30N 36°56' E 000°42'612.8
2018-Jan-07 00:00N 36°53' E 000°35'612.8
2018-Jan-06 23:30N 36°51' E 000°27'713.2
2018-Jan-06 23:00N 36°49' E 000°19'612.5
2018-Jan-06 22:30N 36°47' E 000°12'612.7
2018-Jan-06 22:00N 36°45' E 000°04'25814.0
2018-Jan-06 03:36N 36°02' W 005°11'112.6
2018-Jan-06 03:30N 36°03' W 005°12'612.2
2018-Jan-06 03:00N 36°04' W 005°20'6 0.2
2018-Jan-05 02:13N 36°09' W 005°24'1 2.8
2018-Jan-05 01:59N 36°09' W 005°24'5 8.4
2018-Jan-05 01:23N 36°04' W 005°20'7 5.4
2018-Jan-05 00:02N 36°03' W 005°11'0 3.0
2018-Jan-05 00:00N 36°03' W 005°12'1 2.8
2018-Jan-04 23:31N 36°03' W 005°13'1 2.9
2018-Jan-04 23:00N 36°03' W 005°15'2 3.1
2018-Jan-04 22:30N 36°03' W 005°17'4 8.3
2018-Jan-04 22:01N 35°60' W 005°20'5 9.7
2018-Jan-04 21:31N 35°58' W 005°26'26310.6
2018-Jan-03 20:42N 38°19' W 010°05'413.1
2018-Jan-03 20:21N 38°23' W 010°06'513.0
2018-Jan-03 20:00N 38°27' W 010°08'813.3
2018-Jan-03 19:23N 38°35' W 010°10'712.9
2018-Jan-03 18:52N 38°42' W 010°12'512.8
2018-Jan-03 18:30N 38°47' W 010°12'612.6
2018-Jan-03 18:00N 38°53' W 010°12'913.3
2018-Jan-03 17:18N 39°02' W 010°12'413.2
2018-Jan-03 16:59N 39°06' W 010°12'  

Dump ship's entire track history